THY8DB LTFM-HECA
Flight info
| Callsign | THY8DB |
|---|---|
| Flight time | N/A |
| Altitude | 39000 |
| Route | RATVU1D/35L RATVU UT35 AYT UM855 TOMBI M855 RASDA A16 CVO |
| Aircraft | A339/H-SADE1E2E3GHIJ3J5M1P2RWXY/LB2D1 |
Departure
| Time | N/A |
|---|---|
| Airport | İstanbul Airport (LTFM) |
Arrival
| Time | 2026-05-07 15:14 |
|---|---|
| Airport | Cairo International Airport (HECA) |
| Time | Latitude | Longitude | Altitude | Speed | Heading |
|---|---|---|---|---|---|
| 2026-05-07 13:46 | 39.16085 | 29.76279 | 39182 ft | 455 kts | 163° |
| 2026-05-07 13:46 | 39.13123 | 29.77741 | 39183 ft | 455 kts | 163° |
| 2026-05-07 13:47 | 39.07222 | 29.80649 | 39184 ft | 455 kts | 163° |
| 2026-05-07 13:47 | 39.01335 | 29.83545 | 39184 ft | 455 kts | 163° |
| 2026-05-07 13:48 | 38.95464 | 29.86428 | 39184 ft | 454 kts | 163° |
| 2026-05-07 13:48 | 38.89579 | 29.89311 | 39185 ft | 454 kts | 163° |
| 2026-05-07 13:49 | 38.83711 | 29.92126 | 39185 ft | 453 kts | 163° |
| 2026-05-07 13:49 | 38.77788 | 29.94934 | 39184 ft | 453 kts | 163° |
| 2026-05-07 13:50 | 38.71912 | 29.97720 | 39184 ft | 453 kts | 163° |
| 2026-05-07 13:50 | 38.66047 | 30.00498 | 39184 ft | 453 kts | 163° |
| 2026-05-07 13:51 | 38.60125 | 30.03299 | 39184 ft | 453 kts | 163° |
| 2026-05-07 13:51 | 38.54240 | 30.06078 | 39184 ft | 453 kts | 163° |
| 2026-05-07 13:52 | 38.48376 | 30.08844 | 39184 ft | 453 kts | 163° |
| 2026-05-07 13:52 | 38.42481 | 30.11619 | 39184 ft | 453 kts | 163° |
| 2026-05-07 13:53 | 38.36592 | 30.14386 | 39184 ft | 453 kts | 163° |
| 2026-05-07 13:53 | 38.30705 | 30.17128 | 39184 ft | 452 kts | 164° |
| 2026-05-07 13:54 | 38.24827 | 30.19821 | 39184 ft | 453 kts | 164° |
| 2026-05-07 13:54 | 38.18927 | 30.22529 | 39184 ft | 452 kts | 164° |
| 2026-05-07 13:55 | 38.13023 | 30.25238 | 39184 ft | 452 kts | 164° |
| 2026-05-07 13:55 | 38.07103 | 30.27951 | 39184 ft | 452 kts | 164° |
| 2026-05-07 13:56 | 38.01201 | 30.30648 | 39184 ft | 452 kts | 164° |
| 2026-05-07 13:56 | 37.95315 | 30.33320 | 39184 ft | 452 kts | 164° |
| 2026-05-07 13:57 | 37.89406 | 30.35995 | 39185 ft | 452 kts | 164° |
| 2026-05-07 13:57 | 37.83506 | 30.38661 | 39184 ft | 452 kts | 164° |
| 2026-05-07 13:58 | 37.77582 | 30.41334 | 39184 ft | 452 kts | 164° |
| 2026-05-07 13:58 | 37.71693 | 30.43988 | 39184 ft | 452 kts | 164° |
| 2026-05-07 13:59 | 37.65768 | 30.46654 | 39184 ft | 452 kts | 164° |
| 2026-05-07 13:59 | 37.59861 | 30.49307 | 39184 ft | 452 kts | 164° |
| 2026-05-07 14:00 | 37.53965 | 30.51950 | 39184 ft | 452 kts | 164° |
| 2026-05-07 14:00 | 37.48067 | 30.54591 | 39181 ft | 452 kts | 164° |
| 2026-05-07 14:01 | 37.42133 | 30.57243 | 39173 ft | 452 kts | 164° |
| 2026-05-07 14:01 | 37.36225 | 30.59878 | 39157 ft | 452 kts | 164° |
| 2026-05-07 14:02 | 37.30362 | 30.62490 | 39138 ft | 452 kts | 164° |
| 2026-05-07 14:02 | 37.24427 | 30.65129 | 39121 ft | 452 kts | 165° |
| 2026-05-07 14:03 | 37.18521 | 30.67751 | 39110 ft | 452 kts | 165° |
| 2026-05-07 14:03 | 37.12604 | 30.70372 | 39106 ft | 452 kts | 165° |
| 2026-05-07 14:04 | 37.06696 | 30.72984 | 39105 ft | 452 kts | 164° |
| 2026-05-07 14:04 | 37.00790 | 30.75590 | 39105 ft | 453 kts | 164° |
| 2026-05-07 14:05 | 36.94785 | 30.77797 | 39104 ft | 452 kts | 169° |
| 2026-05-07 14:05 | 36.88636 | 30.79198 | 39106 ft | 450 kts | 175° |
| 2026-05-07 14:06 | 36.82447 | 30.79767 | 39105 ft | 448 kts | 180° |
| 2026-05-07 14:06 | 36.76262 | 30.79976 | 39105 ft | 448 kts | 180° |
| 2026-05-07 14:07 | 36.70018 | 30.80189 | 39105 ft | 448 kts | 180° |
| 2026-05-07 14:07 | 36.63829 | 30.80403 | 39105 ft | 448 kts | 180° |
| 2026-05-07 14:08 | 36.57624 | 30.80620 | 39105 ft | 448 kts | 180° |
| 2026-05-07 14:08 | 36.51414 | 30.80837 | 39105 ft | 448 kts | 180° |
| 2026-05-07 14:09 | 36.45196 | 30.81055 | 39105 ft | 448 kts | 180° |
| 2026-05-07 14:09 | 36.38998 | 30.81267 | 39105 ft | 448 kts | 180° |
| 2026-05-07 14:10 | 36.32791 | 30.81471 | 39105 ft | 448 kts | 180° |
| 2026-05-07 14:10 | 36.26581 | 30.81677 | 39105 ft | 448 kts | 180° |
| 2026-05-07 14:11 | 36.20384 | 30.81885 | 39105 ft | 448 kts | 180° |
| 2026-05-07 14:11 | 36.14177 | 30.82093 | 39105 ft | 448 kts | 180° |
| 2026-05-07 14:12 | 36.07932 | 30.82302 | 39105 ft | 448 kts | 180° |
| 2026-05-07 14:12 | 36.01746 | 30.82539 | 39105 ft | 449 kts | 180° |
| 2026-05-07 14:13 | 35.95527 | 30.82919 | 39105 ft | 449 kts | 179° |
| 2026-05-07 14:13 | 35.89344 | 30.83306 | 39105 ft | 449 kts | 179° |
| 2026-05-07 14:14 | 35.83118 | 30.83687 | 39105 ft | 449 kts | 179° |
| 2026-05-07 14:14 | 35.76911 | 30.84064 | 39105 ft | 449 kts | 179° |
| 2026-05-07 14:15 | 35.70703 | 30.84440 | 39105 ft | 449 kts | 179° |
| 2026-05-07 14:15 | 35.64484 | 30.84815 | 39105 ft | 448 kts | 179° |
| 2026-05-07 14:16 | 35.58306 | 30.85130 | 39105 ft | 448 kts | 180° |
| 2026-05-07 14:16 | 35.52087 | 30.85325 | 39105 ft | 448 kts | 181° |
| 2026-05-07 14:17 | 35.45873 | 30.85522 | 39105 ft | 448 kts | 180° |
| 2026-05-07 14:17 | 35.39658 | 30.85727 | 39105 ft | 448 kts | 180° |
| 2026-05-07 14:18 | 35.33453 | 30.85934 | 39105 ft | 448 kts | 180° |
| 2026-05-07 14:18 | 35.27251 | 30.86143 | 39105 ft | 448 kts | 180° |
| 2026-05-07 14:19 | 35.21052 | 30.86352 | 39105 ft | 448 kts | 180° |
| 2026-05-07 14:19 | 35.14856 | 30.86558 | 39105 ft | 448 kts | 180° |
| 2026-05-07 14:20 | 35.08633 | 30.86763 | 39105 ft | 448 kts | 180° |
| 2026-05-07 14:20 | 35.02447 | 30.86969 | 39105 ft | 448 kts | 181° |
| 2026-05-07 14:21 | 34.96259 | 30.87194 | 39105 ft | 444 kts | 183° |
| 2026-05-07 14:21 | 34.90762 | 30.87388 | 39104 ft | 443 kts | 185° |
| 2026-05-07 14:22 | 34.84616 | 30.87588 | 39105 ft | 445 kts | 186° |
| 2026-05-07 14:22 | 34.78427 | 30.87774 | 39105 ft | 446 kts | 186° |
| 2026-05-07 14:23 | 34.72257 | 30.87972 | 39105 ft | 446 kts | 186° |
| 2026-05-07 14:23 | 34.66089 | 30.88175 | 39105 ft | 446 kts | 186° |
| 2026-05-07 14:24 | 34.59901 | 30.88393 | 39105 ft | 447 kts | 185° |
| 2026-05-07 14:24 | 34.53717 | 30.88698 | 39105 ft | 447 kts | 185° |
| 2026-05-07 14:25 | 34.47504 | 30.89012 | 39105 ft | 447 kts | 185° |
| 2026-05-07 14:25 | 34.41314 | 30.89320 | 39105 ft | 447 kts | 185° |
| 2026-05-07 14:26 | 34.35116 | 30.89626 | 39105 ft | 447 kts | 185° |
| 2026-05-07 14:26 | 34.28940 | 30.89930 | 39105 ft | 447 kts | 185° |
| 2026-05-07 14:27 | 34.22712 | 30.90237 | 39105 ft | 448 kts | 185° |
| 2026-05-07 14:27 | 34.16504 | 30.90582 | 39105 ft | 448 kts | 185° |
| 2026-05-07 14:28 | 34.10342 | 30.90927 | 39105 ft | 448 kts | 185° |
| 2026-05-07 14:28 | 34.04135 | 30.91274 | 39105 ft | 447 kts | 185° |
| 2026-05-07 14:29 | 33.97966 | 30.91618 | 39105 ft | 447 kts | 185° |
| 2026-05-07 14:29 | 33.91747 | 30.91921 | 39105 ft | 447 kts | 186° |
| 2026-05-07 14:30 | 33.85569 | 30.92146 | 39106 ft | 447 kts | 186° |
| 2026-05-07 14:30 | 33.79376 | 30.92373 | 39105 ft | 447 kts | 186° |
| 2026-05-07 14:31 | 33.73201 | 30.92605 | 39105 ft | 447 kts | 186° |
| 2026-05-07 14:31 | 33.67001 | 30.92838 | 39105 ft | 447 kts | 186° |
| 2026-05-07 14:32 | 33.60816 | 30.93073 | 39105 ft | 446 kts | 186° |
| 2026-05-07 14:32 | 33.54658 | 30.93307 | 39105 ft | 447 kts | 186° |
| 2026-05-07 14:33 | 33.48444 | 30.93541 | 39105 ft | 447 kts | 186° |
| 2026-05-07 14:33 | 33.42271 | 30.93774 | 39105 ft | 447 kts | 186° |
| 2026-05-07 14:34 | 33.36062 | 30.94009 | 39105 ft | 446 kts | 186° |
| 2026-05-07 14:34 | 33.29897 | 30.94242 | 39105 ft | 447 kts | 186° |
| 2026-05-07 14:35 | 33.23703 | 30.94475 | 39105 ft | 447 kts | 186° |
| 2026-05-07 14:35 | 33.17500 | 30.94709 | 39105 ft | 446 kts | 186° |
| 2026-05-07 14:36 | 33.11348 | 30.94945 | 39105 ft | 447 kts | 185° |
| 2026-05-07 14:36 | 33.05143 | 30.95549 | 39106 ft | 448 kts | 184° |
| 2026-05-07 14:37 | 32.98971 | 30.96253 | 39106 ft | 446 kts | 186° |
| 2026-05-07 14:37 | 32.89794 | 30.97273 | 39105 ft | 444 kts | 187° |
| 2026-05-07 14:38 | 32.83663 | 30.97944 | 39105 ft | 443 kts | 187° |
| 2026-05-07 14:38 | 32.77545 | 30.98620 | 39109 ft | 443 kts | 187° |
| 2026-05-07 14:39 | 32.71392 | 30.99303 | 39112 ft | 444 kts | 187° |
| 2026-05-07 14:39 | 32.65291 | 30.99982 | 39106 ft | 444 kts | 187° |
| 2026-05-07 14:40 | 32.59169 | 31.00663 | 39105 ft | 445 kts | 187° |
| 2026-05-07 14:40 | 32.53009 | 31.01345 | 39105 ft | 445 kts | 187° |
| 2026-05-07 14:41 | 32.46852 | 31.02027 | 39105 ft | 445 kts | 187° |
| 2026-05-07 14:41 | 32.40696 | 31.02708 | 39104 ft | 444 kts | 187° |
| 2026-05-07 14:42 | 32.34571 | 31.03384 | 38444 ft | 449 kts | 187° |
| 2026-05-07 14:42 | 32.31446 | 31.03723 | 37597 ft | 455 kts | 186° |
| 2026-05-07 14:42 | 32.28286 | 31.04069 | 36846 ft | 458 kts | 186° |
| 2026-05-07 14:43 | 32.25122 | 31.04420 | 36186 ft | 458 kts | 186° |
| 2026-05-07 14:43 | 32.21965 | 31.04774 | 35371 ft | 456 kts | 186° |
| 2026-05-07 14:43 | 32.18874 | 31.05121 | 34069 ft | 455 kts | 186° |
| 2026-05-07 14:43 | 32.15764 | 31.05468 | 33266 ft | 442 kts | 186° |
| 2026-05-07 14:44 | 32.12792 | 31.05808 | 32990 ft | 427 kts | 187° |
| 2026-05-07 14:44 | 32.09859 | 31.06127 | 32762 ft | 426 kts | 187° |
| 2026-05-07 14:44 | 32.06906 | 31.06442 | 32575 ft | 427 kts | 187° |
| 2026-05-07 14:44 | 32.03926 | 31.06764 | 32261 ft | 427 kts | 187° |
| 2026-05-07 14:45 | 32.00999 | 31.07082 | 31868 ft | 424 kts | 186° |
| 2026-05-07 14:45 | 31.98105 | 31.07394 | 31452 ft | 422 kts | 186° |
| 2026-05-07 14:45 | 31.95206 | 31.07706 | 31030 ft | 419 kts | 186° |
| 2026-05-07 14:45 | 31.92305 | 31.08018 | 30593 ft | 417 kts | 186° |
| 2026-05-07 14:46 | 31.89422 | 31.08327 | 30151 ft | 415 kts | 186° |
| 2026-05-07 14:46 | 31.86566 | 31.08632 | 29693 ft | 414 kts | 186° |
| 2026-05-07 14:46 | 31.83715 | 31.08938 | 29266 ft | 412 kts | 186° |
| 2026-05-07 14:46 | 31.80853 | 31.09246 | 28861 ft | 410 kts | 186° |
| 2026-05-07 14:47 | 31.78024 | 31.09549 | 28432 ft | 408 kts | 186° |
| 2026-05-07 14:47 | 31.75252 | 31.09846 | 28020 ft | 407 kts | 185° |
| 2026-05-07 14:47 | 31.72430 | 31.10149 | 27625 ft | 404 kts | 185° |
| 2026-05-07 14:47 | 31.69663 | 31.10446 | 27251 ft | 401 kts | 185° |
| 2026-05-07 14:48 | 31.66894 | 31.10744 | 26876 ft | 399 kts | 185° |
| 2026-05-07 14:48 | 31.64153 | 31.11037 | 26491 ft | 397 kts | 185° |
| 2026-05-07 14:48 | 31.61435 | 31.11329 | 26111 ft | 395 kts | 185° |
| 2026-05-07 14:48 | 31.58696 | 31.11622 | 25719 ft | 393 kts | 185° |
| 2026-05-07 14:49 | 31.55983 | 31.11911 | 25343 ft | 391 kts | 184° |
| 2026-05-07 14:49 | 31.53315 | 31.12214 | 24972 ft | 390 kts | 183° |
| 2026-05-07 14:49 | 31.50631 | 31.12659 | 24608 ft | 391 kts | 180° |
| 2026-05-07 14:49 | 31.47947 | 31.13159 | 24235 ft | 389 kts | 180° |
| 2026-05-07 14:50 | 31.45281 | 31.13662 | 23871 ft | 387 kts | 180° |
| 2026-05-07 14:50 | 31.42658 | 31.14158 | 23518 ft | 385 kts | 179° |
| 2026-05-07 14:50 | 31.40016 | 31.14656 | 23150 ft | 383 kts | 179° |
| 2026-05-07 14:50 | 31.37400 | 31.15147 | 22791 ft | 381 kts | 179° |
| 2026-05-07 14:51 | 31.34820 | 31.15631 | 22440 ft | 379 kts | 179° |
| 2026-05-07 14:51 | 31.32239 | 31.16115 | 22091 ft | 377 kts | 179° |
| 2026-05-07 14:51 | 31.29663 | 31.16597 | 21746 ft | 375 kts | 179° |
| 2026-05-07 14:51 | 31.27096 | 31.17078 | 21402 ft | 373 kts | 178° |
| 2026-05-07 14:52 | 31.24521 | 31.17559 | 21058 ft | 371 kts | 178° |
| 2026-05-07 14:52 | 31.21998 | 31.18030 | 20713 ft | 369 kts | 178° |
| 2026-05-07 14:52 | 31.19464 | 31.18501 | 20368 ft | 367 kts | 178° |
| 2026-05-07 14:52 | 31.16953 | 31.18968 | 20031 ft | 365 kts | 178° |
| 2026-05-07 14:53 | 31.14491 | 31.19427 | 19698 ft | 363 kts | 178° |
| 2026-05-07 14:53 | 31.11989 | 31.19893 | 19357 ft | 361 kts | 177° |
| 2026-05-07 14:53 | 31.09531 | 31.20350 | 19017 ft | 359 kts | 177° |
| 2026-05-07 14:53 | 31.07067 | 31.20808 | 18673 ft | 358 kts | 177° |
| 2026-05-07 14:54 | 31.04608 | 31.21265 | 18329 ft | 356 kts | 177° |
| 2026-05-07 14:54 | 31.02204 | 31.21711 | 17989 ft | 355 kts | 176° |
| 2026-05-07 14:54 | 30.99758 | 31.22164 | 17611 ft | 355 kts | 176° |
| 2026-05-07 14:54 | 30.97332 | 31.22613 | 17225 ft | 355 kts | 176° |
| 2026-05-07 14:55 | 30.94906 | 31.23061 | 16845 ft | 355 kts | 175° |
| 2026-05-07 14:55 | 30.92484 | 31.23510 | 16473 ft | 354 kts | 175° |
| 2026-05-07 14:55 | 30.90053 | 31.23961 | 16104 ft | 354 kts | 175° |
| 2026-05-07 14:55 | 30.87649 | 31.24406 | 15741 ft | 352 kts | 174° |
| 2026-05-07 14:56 | 30.85277 | 31.24846 | 15392 ft | 352 kts | 174° |
| 2026-05-07 14:56 | 30.82939 | 31.25281 | 15060 ft | 351 kts | 174° |
| 2026-05-07 14:56 | 30.80551 | 31.25724 | 14728 ft | 349 kts | 174° |
| 2026-05-07 14:56 | 30.78222 | 31.26156 | 14407 ft | 347 kts | 174° |
| 2026-05-07 14:57 | 30.75844 | 31.26596 | 14081 ft | 345 kts | 174° |
| 2026-05-07 14:57 | 30.73494 | 31.27030 | 13757 ft | 343 kts | 173° |
| 2026-05-07 14:57 | 30.71166 | 31.27460 | 13437 ft | 341 kts | 173° |
| 2026-05-07 14:57 | 30.68811 | 31.27895 | 13112 ft | 339 kts | 173° |
| 2026-05-07 14:58 | 30.66511 | 31.28319 | 12794 ft | 337 kts | 173° |
| 2026-05-07 14:58 | 30.64210 | 31.28743 | 12475 ft | 335 kts | 173° |
| 2026-05-07 14:58 | 30.61912 | 31.29167 | 12157 ft | 333 kts | 173° |
| 2026-05-07 14:58 | 30.59651 | 31.29584 | 11842 ft | 331 kts | 173° |
| 2026-05-07 14:59 | 30.57380 | 31.30002 | 11520 ft | 330 kts | 173° |
| 2026-05-07 14:59 | 30.55124 | 31.30418 | 11195 ft | 328 kts | 173° |
| 2026-05-07 14:59 | 30.52889 | 31.30829 | 10868 ft | 327 kts | 172° |
| 2026-05-07 14:59 | 30.50641 | 31.31242 | 10535 ft | 326 kts | 172° |
| 2026-05-07 15:00 | 30.48430 | 31.31649 | 10209 ft | 325 kts | 172° |
| 2026-05-07 15:00 | 30.46212 | 31.32058 | 10099 ft | 316 kts | 172° |
| 2026-05-07 15:00 | 30.44081 | 31.32451 | 10072 ft | 304 kts | 172° |
| 2026-05-07 15:00 | 30.42031 | 31.32830 | 9928 ft | 298 kts | 173° |
| 2026-05-07 15:01 | 30.39976 | 31.33205 | 9626 ft | 298 kts | 172° |
| 2026-05-07 15:01 | 30.38036 | 31.33559 | 9343 ft | 297 kts | 172° |
| 2026-05-07 15:01 | 30.35983 | 31.33935 | 9054 ft | 296 kts | 172° |
| 2026-05-07 15:01 | 30.33950 | 31.34309 | 8776 ft | 295 kts | 172° |
| 2026-05-07 15:02 | 30.31917 | 31.34682 | 8504 ft | 294 kts | 172° |
| 2026-05-07 15:02 | 30.29911 | 31.35048 | 8233 ft | 293 kts | 172° |
| 2026-05-07 15:02 | 30.27912 | 31.35416 | 7970 ft | 292 kts | 172° |
| 2026-05-07 15:02 | 30.25901 | 31.35781 | 7699 ft | 291 kts | 172° |
| 2026-05-07 15:03 | 30.23910 | 31.36148 | 7430 ft | 290 kts | 172° |
| 2026-05-07 15:03 | 30.21989 | 31.36500 | 7172 ft | 289 kts | 172° |
| 2026-05-07 15:03 | 30.20019 | 31.36859 | 6902 ft | 288 kts | 171° |
| 2026-05-07 15:03 | 30.18042 | 31.37224 | 6634 ft | 288 kts | 171° |
| 2026-05-07 15:04 | 30.16060 | 31.37588 | 6371 ft | 287 kts | 171° |
| 2026-05-07 15:04 | 30.14102 | 31.37946 | 6108 ft | 286 kts | 171° |
| 2026-05-07 15:04 | 30.12152 | 31.38303 | 5849 ft | 285 kts | 171° |
| 2026-05-07 15:04 | 30.10185 | 31.38617 | 5582 ft | 284 kts | 179° |
| 2026-05-07 15:05 | 30.08256 | 31.38385 | 5323 ft | 280 kts | 198° |
| 2026-05-07 15:05 | 30.06421 | 31.37623 | 5065 ft | 278 kts | 204° |
| 2026-05-07 15:05 | 30.04647 | 31.36758 | 4794 ft | 279 kts | 204° |
| 2026-05-07 15:05 | 30.02855 | 31.35886 | 4535 ft | 278 kts | 205° |
| 2026-05-07 15:06 | 30.01072 | 31.35022 | 4285 ft | 278 kts | 204° |
| 2026-05-07 15:06 | 29.99311 | 31.34179 | 4026 ft | 278 kts | 204° |
| 2026-05-07 15:06 | 29.97514 | 31.33332 | 3767 ft | 279 kts | 203° |
| 2026-05-07 15:06 | 29.95725 | 31.32494 | 3513 ft | 278 kts | 203° |
| 2026-05-07 15:07 | 29.93924 | 31.31655 | 3267 ft | 278 kts | 203° |
| 2026-05-07 15:07 | 29.92271 | 31.30528 | 2966 ft | 275 kts | 229° |
| 2026-05-07 15:07 | 29.91334 | 31.28747 | 2719 ft | 267 kts | 257° |
| 2026-05-07 15:07 | 29.91186 | 31.26706 | 2663 ft | 241 kts | 283° |
| 2026-05-07 15:08 | 29.91708 | 31.24967 | 2682 ft | 223 kts | 305° |
| 2026-05-07 15:08 | 29.92698 | 31.23659 | 2686 ft | 209 kts | 325° |
| 2026-05-07 15:08 | 29.93930 | 31.22897 | 2683 ft | 196 kts | 345° |
| 2026-05-07 15:08 | 29.95231 | 31.22671 | 2678 ft | 184 kts | 1° |
| 2026-05-07 15:09 | 29.96445 | 31.22893 | 2650 ft | 174 kts | 21° |
| 2026-05-07 15:09 | 29.97481 | 31.23570 | 2603 ft | 172 kts | 34° |
| 2026-05-07 15:09 | 29.98369 | 31.24495 | 2560 ft | 170 kts | 40° |
| 2026-05-07 15:09 | 29.99161 | 31.25455 | 2546 ft | 159 kts | 44° |
| 2026-05-07 15:10 | 29.99903 | 31.26409 | 2557 ft | 157 kts | 46° |
| 2026-05-07 15:10 | 30.00609 | 31.27342 | 2527 ft | 153 kts | 44° |
| 2026-05-07 15:10 | 30.01292 | 31.28249 | 2505 ft | 146 kts | 46° |
| 2026-05-07 15:10 | 30.01940 | 31.29113 | 2503 ft | 141 kts | 45° |
| 2026-05-07 15:11 | 30.02580 | 31.29966 | 2512 ft | 141 kts | 47° |
| 2026-05-07 15:11 | 30.03226 | 31.30831 | 2398 ft | 141 kts | 45° |
| 2026-05-07 15:11 | 30.03856 | 31.31675 | 2206 ft | 137 kts | 44° |
| 2026-05-07 15:11 | 30.04468 | 31.32492 | 2030 ft | 134 kts | 43° |
| 2026-05-07 15:12 | 30.05091 | 31.33318 | 1866 ft | 136 kts | 46° |
| 2026-05-07 15:12 | 30.05692 | 31.34120 | 1692 ft | 132 kts | 46° |
| 2026-05-07 15:12 | 30.06289 | 31.34917 | 1521 ft | 131 kts | 46° |
| 2026-05-07 15:12 | 30.06892 | 31.35721 | 1343 ft | 130 kts | 46° |
| 2026-05-07 15:13 | 30.07478 | 31.36510 | 1161 ft | 132 kts | 44° |
| 2026-05-07 15:13 | 30.08091 | 31.37312 | 988 ft | 131 kts | 46° |
| 2026-05-07 15:13 | 30.08677 | 31.38094 | 804 ft | 131 kts | 44° |
| 2026-05-07 15:13 | 30.09274 | 31.38899 | 644 ft | 133 kts | 44° |
| 2026-05-07 15:14 | 30.09880 | 31.39695 | 460 ft | 128 kts | 47° |
| 2026-05-07 15:14 | 30.10438 | 31.40432 | 396 ft | 112 kts | 47° |
| 2026-05-07 15:14 | 30.10836 | 31.40966 | 394 ft | 60 kts | 50° |
| 2026-05-07 15:14 | 30.11019 | 31.41213 | 389 ft | 34 kts | 49° |
| 2026-05-07 15:15 | 30.11172 | 31.41416 | 386 ft | 32 kts | 47° |
| 2026-05-07 15:15 | 30.11275 | 31.41521 | 383 ft | 17 kts | 33° |
| 2026-05-07 15:15 | 30.11397 | 31.41585 | 375 ft | 21 kts | 19° |
| 2026-05-07 15:15 | 30.11453 | 31.41607 | 372 ft | 2 kts | 18° |
| 2026-05-07 15:16 | 30.11472 | 31.41614 | 371 ft | 2 kts | 18° |
| 2026-05-07 15:16 | 30.11477 | 31.41616 | 371 ft | 0 kts | 18° |
| 2026-05-07 15:17 | 30.11479 | 31.41617 | 371 ft | 4 kts | 18° |
| 2026-05-07 15:17 | 30.11592 | 31.41606 | 364 ft | 23 kts | 345° |
| 2026-05-07 15:17 | 30.11699 | 31.41555 | 356 ft | 7 kts | 277° |
| 2026-05-07 15:18 | 30.11684 | 31.41468 | 353 ft | 14 kts | 253° |
| 2026-05-07 15:18 | 30.11652 | 31.41347 | 350 ft | 17 kts | 252° |
| 2026-05-07 15:18 | 30.11621 | 31.41227 | 352 ft | 6 kts | 272° |
| 2026-05-07 15:18 | 30.11663 | 31.41180 | 349 ft | 12 kts | 335° |
| 2026-05-07 15:19 | 30.11757 | 31.41153 | 342 ft | 13 kts | 349° |
| 2026-05-07 15:19 | 30.11824 | 31.41128 | 337 ft | 0 kts | 324° |
| 2026-05-07 15:19 | 30.11842 | 31.41101 | 335 ft | 3 kts | 276° |
| 2026-05-07 15:19 | 30.11835 | 31.41062 | 336 ft | 5 kts | 258° |
| 2026-05-07 15:20 | 30.11822 | 31.41015 | 337 ft | 6 kts | 251° |
| 2026-05-07 15:20 | 30.11810 | 31.40971 | 336 ft | 4 kts | 251° |
| 2026-05-07 15:20 | 30.11809 | 31.40969 | 336 ft | 0 kts | 251° |